Time;durP1;ratioP1;P1;durP2;ratioP2;P2;SDS_P1;SDS_P2;PMS_P1;PMS_P2;Temp;Humidity;BMP_temperature;BMP_pressure;BME280_temperature;BME280_humidity;BME280_pressure;Samples;Min_cycle;Max_cycle;Signal;HPM_P1;HPM_P2
2021/12/17 00:07:05;;;;;;;;;;;;;;;11.23;73.95;103770.03;5100057;28;26877;-80
2021/12/17 00:09:31;;;;;;;;;;;;;;;11.19;73.64;103767.34;5100577;28;28453;-80
2021/12/17 00:11:56;;;;;;;;;;;;;;;11.16;73.18;103773.34;5100521;28;26828;-81
2021/12/17 00:14:27;;;;;;;;;;;;;;;11.11;73.48;103774.97;5101209;28;26788;-81
2021/12/17 00:16:54;;;;;;;;;;;;;;;11.07;73.31;103773.16;5099438;28;26867;-81
2021/12/17 00:19:34;;;;;;;;;;;;;;;11.07;74.10;103783.50;5100604;28;26817;-79
2021/12/17 00:44:12;;;;;;;;;;;;;;;11.05;74.11;103764.50;5096742;28;27018;-80
2021/12/17 00:48:24;;;;;;;;;;;;;;;11.08;74.33;103764.56;5098312;28;26741;-79
2021/12/17 00:49:24;;;;;;;;;;;;;;;11.12;73.89;103772.41;5099031;28;26774;-79
2021/12/17 00:51:57;;;;;;;;;;;;;;;11.16;74.21;103768.19;5098901;27;27178;-78
2021/12/17 00:54:31;;;;;;;;;;;;;;;11.18;73.95;103763.88;5102251;27;26718;-78
2021/12/17 00:56:59;;;;;;;;;;;;;;;11.22;73.25;103763.09;5101501;27;26768;-80
2021/12/17 00:59:25;;;;;;;;;;;;;;;11.22;73.50;103767.41;5099269;28;26797;-80
2021/12/17 01:01:52;;;;;;;;;;;;;;;11.22;73.38;103763.09;5098940;27;26837;-80
2021/12/17 01:04:18;;;;;;;;;;;;;;;11.23;73.30;103764.00;5098070;27;26993;-80
2021/12/17 01:06:43;;;;;;;;;;;;;;;11.23;73.86;103759.69;5099052;28;26939;-80
2021/12/17 01:09:09;;;;;;;;;;;;;;;11.22;73.39;103757.94;5099080;28;26764;-78
2021/12/17 01:11:35;;;;;;;;;;;;;;;11.20;73.92;103749.28;5099293;28;27271;-79
2021/12/17 01:14:00;;;;;;;;;;;;;;;11.25;73.94;103763.16;5099734;28;26889;-80
2021/12/17 01:16:26;;;;;;;;;;;;;;;11.26;73.86;103767.50;5099573;28;26756;-80
2021/12/17 01:19:18;;;;;;;;;;;;;;;;;;;;;
2021/12/17 01:24:16;;;;;;;;;;;;;;;11.29;73.16;103767.56;5095622;27;26779;-78
2021/12/17 01:43:07;;;;;;;;;;;;;;;11.20;73.64;103764.81;5099444;28;26742;-79
2021/12/17 01:45:37;;;;;;;;;;;;;;;11.19;73.63;103765.66;5100399;27;26876;-79
2021/12/17 01:48:06;;;;;;;;;;;;;;;11.20;73.35;103767.41;5100006;27;27099;-79
2021/12/17 01:56:16;;;;;;;;;;;;;;;11.20;73.56;103774.28;5098351;28;26851;-79
2021/12/17 02:01:26;;;;;;;;;;;;;;;11.23;73.39;103761.41;5094570;28;26936;-79
2021/12/17 02:03:52;;;;;;;;;;;;;;;11.23;73.08;103757.09;5097516;27;27348;-80
2021/12/17 02:06:18;;;;;;;;;;;;;;;11.22;73.78;103752.75;5098722;28;35756;-81
2021/12/17 02:08:46;;;;;;;;;;;;;;;11.20;73.29;103762.22;5098948;27;26942;-78
2021/12/17 02:22:42;;;;;;;;;;;;;;;11.11;73.25;103770.66;5088672;27;26737;-79
2021/12/17 02:32:48;;;;;;;;;;;;;;;11.08;73.38;103780.06;5094844;28;26859;-78
2021/12/17 02:35:28;;;;;;;;;;;;;;;11.09;73.51;103781.81;5096321;27;27012;-78
2021/12/17 02:37:54;;;;;;;;;;;;;;;11.10;73.18;103788.72;5097496;27;26821;-80
2021/12/17 02:45:48;;;;;;;;;;;;;;;11.10;72.70;103791.31;5098867;28;26906;-80
2021/12/17 02:48:15;;;;;;;;;;;;;;;11.09;73.81;103792.19;5102384;27;26548;-79
2021/12/17 02:50:45;;;;;;;;;;;;;;;11.05;73.59;103790.38;5103023;27;27032;-80
2021/12/17 02:53:11;;;;;;;;;;;;;;;11.00;73.73;103789.38;5097926;27;27103;-78
2021/12/17 02:55:38;;;;;;;;;;;;;;;11.00;73.98;103786.78;5096956;27;27523;-78
2021/12/17 02:58:04;;;;;;;;;;;;;;;10.99;72.81;103791.09;5097064;27;26753;-78
2021/12/17 03:00:30;;;;;;;;;;;;;;;10.99;73.59;103790.22;5096542;27;26998;-78
2021/12/17 03:02:56;;;;;;;;;;;;;;;10.98;73.95;103788.50;5096945;27;26753;-79
2021/12/17 03:05:22;;;;;;;;;;;;;;;10.94;74.03;103786.69;5096283;28;27032;-80
2021/12/17 03:07:48;;;;;;;;;;;;;;;10.80;73.68;103757.91;5097467;27;26941;-79
2021/12/17 03:10:15;;;;;;;;;;;;;;;10.97;74.14;103784.16;5097425;27;26798;-79
2021/12/17 03:12:43;;;;;;;;;;;;;;;11.00;73.00;103784.22;5097447;27;27017;-78
2021/12/17 03:15:22;;;;;;;;;;;;;;;11.00;73.51;103779.03;5096934;28;27189;-78
2021/12/17 03:23:29;;;;;;;;;;;;;;;10.90;73.38;103774.53;5095990;28;26340;-78
2021/12/17 03:25:55;;;;;;;;;;;;;;;10.87;73.71;103774.47;5096139;28;26553;-78
2021/12/17 03:28:20;;;;;;;;;;;;;;;10.86;73.18;103775.28;5097203;27;26770;-78
2021/12/17 03:30:46;;;;;;;;;;;;;;;10.86;73.26;103775.28;5100088;28;27018;-78
2021/12/17 03:33:12;;;;;;;;;;;;;;;10.85;73.51;103778.72;5100535;27;26746;-78
2021/12/17 03:35:37;;;;;;;;;;;;;;;10.84;73.96;103780.41;5099717;27;28955;-78
2021/12/17 03:38:03;;;;;;;;;;;;;;;10.82;73.11;103778.66;5101486;28;26780;-79
2021/12/17 03:40:31;;;;;;;;;;;;;;;10.81;73.16;103775.19;5100901;27;27506;-80
2021/12/17 03:43:01;;;;;;;;;;;;;;;10.79;73.72;103770.84;5100772;28;26949;-80
2021/12/17 03:45:27;;;;;;;;;;;;;;;10.79;73.68;103770.84;5100426;27;26943;-80
2021/12/17 03:47:52;;;;;;;;;;;;;;;10.78;73.80;103769.06;5100440;28;27001;-79
2021/12/17 03:50:17;;;;;;;;;;;;;;;10.78;73.25;103766.50;5099496;28;27668;-78
2021/12/17 03:52:43;;;;;;;;;;;;;;;10.78;73.46;103774.25;5100415;28;26765;-78
2021/12/17 03:55:08;;;;;;;;;;;;;;;10.79;73.69;103776.00;5099908;27;27064;-78
2021/12/17 03:57:35;;;;;;;;;;;;;;;10.79;73.73;103770.84;5100337;28;26931;-78
2021/12/17 04:00:00;;;;;;;;;;;;;;;10.78;73.66;103763.91;5099221;27;27029;-77
2021/12/17 04:02:26;;;;;;;;;;;;;;;10.78;73.60;103759.63;5099789;28;26832;-77
2021/12/17 04:04:51;;;;;;;;;;;;;;;10.81;73.70;103766.56;5099637;28;27178;-77
2021/12/17 04:07:16;;;;;;;;;;;;;;;10.83;73.31;103773.53;5099789;28;26965;-77
2021/12/17 04:09:41;;;;;;;;;;;;;;;10.85;73.56;103766.66;5099841;28;52613;-77
2021/12/17 04:12:11;;;;;;;;;;;;;;;10.88;73.64;103765.84;5099840;28;42659;-80
2021/12/17 04:14:47;;;;;;;;;;;;;;;10.85;73.28;103776.13;5101169;27;26717;-80
2021/12/17 04:17:15;;;;;;;;;;;;;;;10.82;73.86;103776.06;5099570;27;26969;-79
2021/12/17 04:19:40;;;;;;;;;;;;;;;10.85;73.78;103781.28;5098658;27;27048;-78
2021/12/17 04:22:06;;;;;;;;;;;;;;;10.87;73.25;103782.22;5097175;28;45771;-78
2021/12/17 04:24:32;;;;;;;;;;;;;;;10.90;73.24;103784.88;5099734;28;27724;-78
2021/12/17 04:26:57;;;;;;;;;;;;;;;10.91;73.15;103773.69;5100561;28;54260;-80
2021/12/17 04:29:24;;;;;;;;;;;;;;;10.93;73.12;103784.91;5098111;28;56416;-79
2021/12/17 04:31:54;;;;;;;;;;;;;;;10.93;72.84;103785.81;5099460;27;26797;-80
2021/12/17 04:34:20;;;;;;;;;;;;;;;10.91;73.03;103781.44;5099128;28;27404;-80
2021/12/17 04:36:48;;;;;;;;;;;;;;;10.86;73.05;103785.63;5099767;27;26980;-80
2021/12/17 04:39:16;;;;;;;;;;;;;;;10.80;73.05;103788.09;5099360;27;26927;-78
2021/12/17 04:44:25;;;;;;;;;;;;;;;10.78;73.46;103789.75;5095358;28;27507;-78
2021/12/17 04:47:02;;;;;;;;;;;;;;;10.75;73.39;103780.22;5098902;27;26981;-78
2021/12/17 04:58:00;;;;;;;;;;;;;;;10.76;73.46;103781.13;5093511;27;26950;-78
2021/12/17 05:00:27;;;;;;;;;;;;;;;10.71;73.82;103777.53;5100226;27;26998;-78
2021/12/17 05:02:55;;;;;;;;;;;;;;;10.72;73.04;103779.28;5098708;27;26789;-78
2021/12/17 05:05:21;;;;;;;;;;;;;;;10.71;73.22;103786.16;5097986;27;27369;-78
2021/12/17 05:07:57;;;;;;;;;;;;;;;10.72;73.74;103785.34;5098402;27;26797;-78
2021/12/17 05:18:32;;;;;;;;;;;;;;;10.78;72.88;103794.94;5099315;28;26907;-79
2021/12/17 05:21:01;;;;;;;;;;;;;;;10.75;73.36;103790.56;5098918;27;26906;-79
2021/12/17 05:23:31;;;;;;;;;;;;;;;10.76;73.25;103799.22;5098984;27;26610;-80
2021/12/17 05:25:57;;;;;;;;;;;;;;;10.74;73.03;103793.13;5098528;27;26947;-80
2021/12/17 05:28:22;;;;;;;;;;;;;;;10.74;73.02;103787.94;5098660;27;26750;-79
2021/12/17 05:30:48;;;;;;;;;;;;;;;10.75;73.42;103797.47;5097296;28;56437;-78
2021/12/17 05:33:13;;;;;;;;;;;;;;;10.77;73.07;103798.34;5099356;27;26764;-78
2021/12/17 05:35:38;;;;;;;;;;;;;;;10.79;73.34;103801.84;5099093;28;27000;-79
2021/12/17 05:38:04;;;;;;;;;;;;;;;10.77;73.88;103799.22;5099007;28;26922;-79
2021/12/17 05:40:29;;;;;;;;;;;;;;;10.81;73.44;103805.34;5097890;28;56682;-78
2021/12/17 05:42:58;;;;;;;;;;;;;;;10.81;73.21;103802.75;5099379;28;27036;-80
2021/12/17 05:45:35;;;;;;;;;;;;;;;10.80;73.68;103803.63;5097937;27;26826;-80
2021/12/17 05:48:02;;;;;;;;;;;;;;;10.79;74.01;103800.16;5098690;28;26935;-79
2021/12/17 05:50:28;;;;;;;;;;;;;;;10.79;73.63;103799.28;5101000;28;27076;-79
2021/12/17 05:52:53;;;;;;;;;;;;;;;10.80;73.05;103795.84;5098343;27;26760;-79
2021/12/17 05:55:18;;;;;;;;;;;;;;;10.82;73.29;103807.09;5098547;28;27152;-78
2021/12/17 05:57:43;;;;;;;;;;;;;;;10.83;73.14;103798.50;5098457;28;26968;-78
2021/12/17 06:00:09;;;;;;;;;;;;;;;10.81;74.06;103795.00;5097526;28;32418;-79
2021/12/17 06:02:34;;;;;;;;;;;;;;;10.80;73.16;103788.09;5098289;28;26919;-79
2021/12/17 06:04:59;;;;;;;;;;;;;;;10.80;74.01;103785.50;5098516;28;26861;-79
2021/12/17 06:07:25;;;;;;;;;;;;;;;10.79;73.69;103782.06;5098841;28;26886;-79
2021/12/17 06:09:52;;;;;;;;;;;;;;;10.79;73.95;103781.16;5097235;28;26991;-80
2021/12/17 06:12:17;;;;;;;;;;;;;;;10.78;73.98;103769.06;5097867;27;27138;-81
2021/12/17 06:14:43;;;;;;;;;;;;;;;10.78;73.38;103779.41;5098726;28;26655;-81
2021/12/17 06:17:08;;;;;;;;;;;;;;;10.80;73.45;103788.94;5098052;27;26885;-80
2021/12/17 06:19:34;;;;;;;;;;;;;;;10.82;73.59;103794.16;5097611;28;53991;-81
2021/12/17 06:21:59;;;;;;;;;;;;;;;10.85;73.99;103796.81;5097455;28;55267;-80
2021/12/17 06:24:24;;;;;;;;;;;;;;;10.87;73.59;103784.81;5099006;28;26891;-80
2021/12/17 06:26:49;;;;;;;;;;;;;;;10.87;73.61;103789.97;5099623;28;26974;-79
2021/12/17 06:29:16;;;;;;;;;;;;;;;10.85;73.42;103791.63;5095660;28;57239;-80
2021/12/17 06:31:41;;;;;;;;;;;;;;;10.82;73.77;103786.41;5096522;27;26769;-79
2021/12/17 06:34:06;;;;;;;;;;;;;;;10.78;73.58;103794.94;5097028;28;43530;-81
2021/12/17 06:36:32;;;;;;;;;;;;;;;10.76;73.42;103796.63;5097753;28;54050;-81
2021/12/17 06:38:57;;;;;;;;;;;;;;;10.74;74.24;103803.44;5096671;28;57473;-80
2021/12/17 06:41:22;;;;;;;;;;;;;;;10.74;73.21;103795.69;5097059;28;37562;-79
2021/12/17 06:43:47;;;;;;;;;;;;;;;10.77;73.35;103793.19;5096991;28;38619;-79
2021/12/17 06:46:19;;;;;;;;;;;;;;;10.79;74.04;103786.34;5095817;28;55023;-79
2021/12/17 06:48:47;;;;;;;;;;;;;;;10.80;73.49;103793.28;5095995;27;27055;-79
2021/12/17 06:59:20;;;;;;;;;;;;;;;10.87;73.93;103800.31;5083824;27;27017;-80
2021/12/17 07:23:22;;;;;;;;;;;;;;;10.87;73.35;103813.25;5049070;28;27257;-79
2021/12/17 07:33:47;;;;;;;;;;;;;;;10.89;73.76;103806.38;5065551;28;27426;-79
2021/12/17 07:36:15;;;;;;;;;;;;;;;10.92;74.23;103815.06;5069941;27;27799;-79
2021/12/17 07:38:48;;;;;;;;;;;;;;;10.97;74.04;103812.59;5071434;27;27176;-80
2021/12/17 07:41:13;;;;;;;;;;;;;;;10.98;73.80;103815.22;5068306;27;27644;-79
2021/12/17 07:43:39;;;;;;;;;;;;;;;11.00;73.04;103813.53;5070933;28;27085;-79
2021/12/17 07:46:08;;;;;;;;;;;;;;;10.91;73.13;103794.38;5071689;27;27571;-79
2021/12/17 07:48:33;;;;;;;;;;;;;;;11.05;73.95;103816.22;5073083;27;26947;-78
2021/12/17 07:51:00;;;;;;;;;;;;;;;11.08;73.51;103816.28;5078040;27;28568;-80
2021/12/17 07:53:25;;;;;;;;;;;;;;;11.07;74.00;103809.34;5077847;27;26991;-79
2021/12/17 07:55:51;;;;;;;;;;;;;;;11.10;73.54;103801.66;5076191;28;27755;-79
2021/12/17 07:58:16;;;;;;;;;;;;;;;11.13;73.71;103809.50;5072468;28;27330;-79
2021/12/17 08:00:41;;;;;;;;;;;;;;;11.15;73.94;103808.69;5070812;28;27633;-80
2021/12/17 08:03:07;;;;;;;;;;;;;;;11.16;73.49;103809.56;5078215;27;26993;-78
2021/12/17 08:05:32;;;;;;;;;;;;;;;11.18;73.96;103801.81;5073291;28;27206;-80
2021/12/17 08:07:57;;;;;;;;;;;;;;;11.18;74.03;103805.28;5072339;28;27023;-80
2021/12/17 08:10:22;;;;;;;;;;;;;;;11.19;73.31;103819.97;5071585;28;56489;-79
2021/12/17 08:12:48;;;;;;;;;;;;;;;11.18;73.18;103818.22;5073437;28;27449;-80
2021/12/17 08:15:14;;;;;;;;;;;;;;;11.17;73.14;103829.44;5071407;27;27941;-80
2021/12/17 08:26:08;;;;;;;;;;;;;;;11.15;73.70;103820.75;5032749;28;27268;-81
2021/12/17 08:31:17;;;;;;;;;;;;;;;11.19;73.45;103838.09;5040412;28;27603;-81
2021/12/17 08:33:43;;;;;;;;;;;;;;;11.22;73.79;103830.38;5051423;27;27108;-80
2021/12/17 08:42:15;;;;;;;;;;;;;;;11.30;73.92;103844.34;5080385;28;27305;-81
2021/12/17 08:44:40;;;;;;;;;;;;;;;11.31;74.05;103840.94;5060010;28;27126;-80
2021/12/17 08:47:05;;;;;;;;;;;;;;;11.35;73.64;103842.75;5061354;28;27532;-80
2021/12/17 08:49:32;;;;;;;;;;;;;;;11.37;73.56;103843.63;5054655;27;27498;-81
2021/12/17 08:51:57;;;;;;;;;;;;;;;11.38;73.43;103840.22;5044604;28;27606;-81
2021/12/17 08:54:22;;;;;;;;;;;;;;;11.42;73.62;103852.38;5065419;28;27226;-81
2021/12/17 08:56:49;;;;;;;;;;;;;;;11.43;73.04;103846.38;5053091;28;31601;-82
2021/12/17 08:59:16;;;;;;;;;;;;;;;11.50;73.39;103848.22;5057786;28;27280;-81
2021/12/17 09:01:42;;;;;;;;;;;;;;;11.52;73.93;103841.34;5050622;28;27563;-81
2021/12/17 09:04:08;;;;;;;;;;;;;;;11.55;73.59;103836.22;5053065;28;27215;-81
2021/12/17 09:06:33;;;;;;;;;;;;;;;11.59;73.81;103847.53;5047542;28;27143;-82
2021/12/17 09:08:59;;;;;;;;;;;;;;;11.58;73.22;103838.88;5038309;28;54651;-81
2021/12/17 09:11:25;;;;;;;;;;;;;;;11.60;73.53;103844.97;5041302;28;27791;-81
2021/12/17 09:13:53;;;;;;;;;;;;;;;11.62;74.11;103852.78;5047238;28;27219;-81
2021/12/17 09:16:20;;;;;;;;;;;;;;;11.64;74.09;103856.25;5026531;28;29109;-81
2021/12/17 09:18:46;;;;;;;;;;;;;;;11.68;74.21;103852.00;5039220;28;26937;-80
2021/12/17 09:21:11;;;;;;;;;;;;;;;11.70;74.08;103851.19;5035573;28;27596;-82
2021/12/17 09:23:36;;;;;;;;;;;;;;;11.75;74.13;103853.91;5029613;28;27149;-82
2021/12/17 09:26:02;;;;;;;;;;;;;;;11.80;73.54;103854.88;4991347;28;28569;-82
2021/12/17 09:28:29;;;;;;;;;;;;;;;11.83;73.08;103860.13;4980351;28;31738;-82
2021/12/17 09:30:54;;;;;;;;;;;;;;;11.86;73.46;103860.16;4979090;28;27768;-82
2021/12/17 09:33:19;;;;;;;;;;;;;;;11.90;73.85;103869.75;4987137;28;41271;-81
2021/12/17 09:35:45;;;;;;;;;;;;;;;11.94;73.46;103864.66;5004618;28;47190;-80
2021/12/17 09:38:10;;;;;;;;;;;;;;;11.94;74.26;103863.78;5000557;28;27618;-79
2021/12/17 09:40:35;;;;;;;;;;;;;;;12.01;73.83;103873.41;5004771;28;47271;-80
2021/12/17 09:43:01;;;;;;;;;;;;;;;12.03;73.19;103866.53;5009314;28;27440;-81
2021/12/17 09:45:26;;;;;;;;;;;;;;;12.06;73.04;103867.47;4996542;28;28032;-80
2021/12/17 09:47:51;;;;;;;;;;;;;;;11.97;74.28;103848.28;5025027;28;27374;-79
2021/12/17 09:50:19;;;;;;;;;;;;;;;12.09;73.38;103877.00;5050309;28;27343;-80
2021/12/17 09:52:44;;;;;;;;;;;;;;;12.08;73.62;103864.88;5057533;27;27188;-80
2021/12/17 09:55:09;;;;;;;;;;;;;;;12.10;73.09;103864.09;5063526;27;27268;-81
2021/12/17 09:57:37;;;;;;;;;;;;;;;12.10;73.49;103874.47;5065790;27;27350;-80
2021/12/17 10:00:07;;;;;;;;;;;;;;;12.11;73.27;103870.13;5056286;28;27345;-80
2021/12/17 10:02:33;;;;;;;;;;;;;;;12.11;74.30;103872.72;5062289;27;26825;-80
2021/12/17 10:04:58;;;;;;;;;;;;;;;12.11;73.88;103867.53;5040663;28;28354;-79
2021/12/17 10:07:24;;;;;;;;;;;;;;;12.14;73.06;103870.19;5047912;28;49508;-80
2021/12/17 10:09:51;;;;;;;;;;;;;;;12.17;73.42;103878.03;5047975;28;27340;-80
2021/12/17 10:12:21;;;;;;;;;;;;;;;12.21;73.62;103879.81;5043316;28;27122;-79
2021/12/17 10:15:00;;;;;;;;;;;;;;;12.26;73.45;103885.94;5044170;28;27526;-80
2021/12/17 10:17:25;;;;;;;;;;;;;;;12.30;73.45;103882.56;5046559;28;27314;-79
2021/12/17 10:19:51;;;;;;;;;;;;;;;12.35;73.72;103880.94;5046349;28;27314;-79
2021/12/17 10:22:18;;;;;;;;;;;;;;;12.39;73.69;103882.72;5052844;28;27477;-80
2021/12/17 10:24:44;;;;;;;;;;;;;;;12.42;73.52;103880.19;5053087;28;27317;-79
2021/12/17 10:27:23;;;;;;;;;;;;;;;12.45;73.40;103888.00;5051912;28;27060;-79
2021/12/17 10:29:48;;;;;;;;;;;;;;;12.50;73.63;103881.19;5050634;28;27147;-80
2021/12/17 10:32:17;;;;;;;;;;;;;;;12.53;73.89;103891.59;5048235;28;27032;-78
2021/12/17 10:35:01;;;;;;;;;;;;;;;12.55;73.02;103887.34;5050485;28;27191;-79
2021/12/17 10:37:38;;;;;;;;;;;;;;;12.57;73.19;103896.00;5069019;27;27344;-79
2021/12/17 10:40:13;;;;;;;;;;;;;;;12.60;73.43;103893.44;5062310;27;27183;-79
2021/12/17 10:42:41;;;;;;;;;;;;;;;12.59;73.60;103896.91;5057181;27;27261;-79
2021/12/17 10:45:12;;;;;;;;;;;;;;;12.62;73.08;103895.19;5047015;27;27109;-79
2021/12/17 10:47:46;;;;;;;;;;;;;;;12.63;73.18;103886.56;5021375;27;27353;-79
2021/12/17 10:50:11;;;;;;;;;;;;;;;12.63;72.93;103890.06;5042039;27;27354;-79
2021/12/17 10:52:41;;;;;;;;;;;;;;;12.64;72.85;103888.28;5045627;28;54607;-80
2021/12/17 10:55:10;;;;;;;;;;;;;;;12.65;73.01;103890.06;5054036;27;27133;-80
2021/12/17 10:57:35;;;;;;;;;;;;;;;12.63;72.79;103886.56;5051411;27;27272;-79
2021/12/17 11:00:03;;;;;;;;;;;;;;;12.62;72.89;103879.63;5059590;28;27843;-80
2021/12/17 11:02:30;;;;;;;;;;;;;;;12.59;73.44;103886.53;5061568;27;27430;-80
2021/12/17 11:04:56;;;;;;;;;;;;;;;12.51;72.88;103872.56;5060974;27;27494;-80
2021/12/17 11:07:22;;;;;;;;;;;;;;;12.62;72.67;103890.00;5062613;28;27164;-78
2021/12/17 11:09:47;;;;;;;;;;;;;;;12.57;72.48;103877.84;5043653;28;29547;-78
2021/12/17 11:12:26;;;;;;;;;;;;;;;12.66;72.90;103886.63;5038592;28;27503;-80
2021/12/17 11:14:51;;;;;;;;;;;;;;;12.65;72.61;103883.16;5039719;27;28021;-80
2021/12/17 11:17:18;;;;;;;;;;;;;;;12.69;73.33;103881.47;5049916;27;27084;-80
2021/12/17 11:19:44;;;;;;;;;;;;;;;12.71;72.91;103882.38;5053802;28;27663;-78
2021/12/17 11:22:09;;;;;;;;;;;;;;;12.75;73.23;103879.84;5053032;27;26978;-79
2021/12/17 11:24:35;;;;;;;;;;;;;;;12.78;73.15;103879.91;5059078;28;27248;-79
2021/12/17 11:27:01;;;;;;;;;;;;;;;12.81;72.57;103881.66;5060513;27;27168;-80
2021/12/17 11:29:27;;;;;;;;;;;;;;;12.80;73.00;103874.72;5055345;28;27781;-80
2021/12/17 11:31:52;;;;;;;;;;;;;;;12.84;72.58;103876.53;5052335;27;27270;-80
2021/12/17 11:34:18;;;;;;;;;;;;;;;12.87;73.22;103876.56;5057062;28;48500;-79
2021/12/17 11:36:43;;;;;;;;;;;;;;;12.90;72.82;103881.78;5065199;27;26884;-79
2021/12/17 11:39:21;;;;;;;;;;;;;;;12.93;72.72;103882.75;5063953;27;27559;-80
2021/12/17 11:41:52;;;;;;;;;;;;;;;12.90;72.96;103871.41;5058215;28;27634;-80
2021/12/17 11:44:20;;;;;;;;;;;;;;;12.94;72.51;103876.66;5062614;27;27266;-80
2021/12/17 11:46:59;;;;;;;;;;;;;;;12.97;72.91;103883.66;5041458;27;27493;-80
2021/12/17 11:49:25;;;;;;;;;;;;;;;12.87;72.38;103858.41;5028307;27;27276;-80
2021/12/17 11:51:54;;;;;;;;;;;;;;;13.03;72.78;103883.72;5030892;27;27055;-80
2021/12/17 11:54:26;;;;;;;;;;;;;;;13.04;72.86;103885.47;5033907;27;27940;-80
2021/12/17 11:56:54;;;;;;;;;;;;;;;13.04;72.39;103883.75;5040452;27;27303;-79
2021/12/17 11:59:25;;;;;;;;;;;;;;;13.04;72.28;103875.09;5037308;28;28016;-78
2021/12/17 12:02:00;;;;;;;;;;;;;;;13.02;72.13;103874.19;5038914;27;27120;-80
2021/12/17 12:04:31;;;;;;;;;;;;;;;13.04;72.12;103875.09;5026538;27;27723;-80
2021/12/17 12:07:00;;;;;;;;;;;;;;;13.05;72.01;103869.91;5034072;28;27373;-80
2021/12/17 12:09:44;;;;;;;;;;;;;;;13.06;72.67;103863.00;5041501;27;27293;-80
2021/12/17 12:12:10;;;;;;;;;;;;;;;13.01;71.07;103854.28;5044339;28;27273;-78
2021/12/17 12:14:35;;;;;;;;;;;;;;;13.04;72.43;103859.53;5041393;28;27340;-79
2021/12/17 12:17:00;;;;;;;;;;;;;;;13.02;72.91;103861.22;5049361;28;38882;-80
2021/12/17 12:19:45;;;;;;;;;;;;;;;13.04;72.53;103859.53;5047748;28;56556;-79
2021/12/17 12:22:12;;;;;;;;;;;;;;;13.05;72.71;103867.31;5056028;28;27283;-80
2021/12/17 12:24:37;;;;;;;;;;;;;;;13.07;72.30;103868.22;5059798;27;26937;-79
2021/12/17 12:27:02;;;;;;;;;;;;;;;13.08;72.54;103876.88;5060221;28;47623;-79
2021/12/17 12:29:28;;;;;;;;;;;;;;;13.09;71.76;103868.22;5064618;28;27234;-80
2021/12/17 12:31:55;;;;;;;;;;;;;;;13.07;71.58;103875.13;5065678;27;27059;-79
2021/12/17 12:34:22;;;;;;;;;;;;;;;13.06;72.19;103874.25;5067076;27;27654;-79
2021/12/17 12:37:00;;;;;;;;;;;;;;;13.05;72.29;103871.63;5069270;27;27185;-79
2021/12/17 12:39:35;;;;;;;;;;;;;;;13.06;71.84;103869.06;5071078;27;27205;-80
2021/12/17 12:42:03;;;;;;;;;;;;;;;13.04;72.24;103867.31;5072387;27;26984;-79
2021/12/17 12:44:43;;;;;;;;;;;;;;;13.06;72.36;103868.19;5074496;27;27239;-80
2021/12/17 12:47:13;;;;;;;;;;;;;;;13.06;71.67;103860.41;5080700;28;27154;-79
2021/12/17 12:49:45;;;;;;;;;;;;;;;13.05;71.71;103862.13;5084433;27;27233;-79
2021/12/17 12:52:25;;;;;;;;;;;;;;;13.05;72.23;103856.94;5086597;27;27282;-79
2021/12/17 12:54:51;;;;;;;;;;;;;;;13.02;71.80;103856.03;5083987;28;26994;-79
2021/12/17 12:57:27;;;;;;;;;;;;;;;13.02;72.25;103845.66;5080695;27;26974;-80
2021/12/17 12:59:54;;;;;;;;;;;;;;;13.04;71.89;103849.16;5069475;27;27255;-80
2021/12/17 13:02:19;;;;;;;;;;;;;;;13.01;72.24;103844.78;5071091;28;27100;-79
2021/12/17 13:04:46;;;;;;;;;;;;;;;13.04;72.08;103843.97;5069524;27;27263;-80
2021/12/17 13:07:14;;;;;;;;;;;;;;;13.04;72.04;103847.44;5066724;28;27314;-80
2021/12/17 13:09:43;;;;;;;;;;;;;;;13.06;72.48;103847.44;5054932;28;27243;-79
2021/12/17 13:12:08;;;;;;;;;;;;;;;13.03;71.93;103829.22;5043541;27;27354;-79
2021/12/17 13:14:41;;;;;;;;;;;;;;;13.09;72.04;103837.09;5041014;27;28467;-80
2021/12/17 13:17:28;;;;;;;;;;;;;;;13.11;71.44;103838.03;5038840;27;27318;-80
2021/12/17 13:22:54;;;;;;;;;;;;;;;13.06;71.92;103837.94;5034409;28;27268;-80
2021/12/17 13:25:23;;;;;;;;;;;;;;;13.05;71.31;103835.31;5044436;28;27362;-80
2021/12/17 13:27:55;;;;;;;;;;;;;;;13.00;71.92;103831.78;5045587;27;27135;-80
2021/12/17 13:30:27;;;;;;;;;;;;;;;12.99;71.71;103832.63;5044389;28;27304;-80
2021/12/17 13:32:52;;;;;;;;;;;;;;;12.92;71.99;103828.22;5043771;27;27482;-81
2021/12/17 13:35:18;;;;;;;;;;;;;;;12.91;71.11;103831.66;5041724;28;27360;-80
2021/12/17 13:37:43;;;;;;;;;;;;;;;12.84;71.46;103819.44;5043135;28;27391;-80
2021/12/17 13:40:10;;;;;;;;;;;;;;;12.84;71.35;103835.00;5043172;28;27350;-78
2021/12/17 13:42:36;;;;;;;;;;;;;;;12.81;71.62;103835.84;5043209;27;27392;-78
2021/12/17 13:45:09;;;;;;;;;;;;;;;12.82;71.87;103831.53;5046306;27;27630;-78
2021/12/17 13:47:38;;;;;;;;;;;;;;;12.83;71.92;103844.53;5055472;27;27168;-78
2021/12/17 13:50:03;;;;;;;;;;;;;;;12.85;71.51;103841.97;5065714;27;27569;-79
2021/12/17 13:52:30;;;;;;;;;;;;;;;12.87;71.68;103835.06;5070882;28;27238;-78
2021/12/17 13:54:56;;;;;;;;;;;;;;;12.88;71.96;103831.63;5074664;28;27037;-79
2021/12/17 13:57:23;;;;;;;;;;;;;;;12.89;71.65;103833.38;5070911;27;27310;-79
2021/12/17 13:59:48;;;;;;;;;;;;;;;12.90;72.22;103824.72;5074709;27;27206;-79
2021/12/17 14:02:19;;;;;;;;;;;;;;;12.91;72.18;103826.47;5075176;28;27112;-80
2021/12/17 14:04:59;;;;;;;;;;;;;;;12.89;72.20;103823.00;5076370;27;27926;-80
2021/12/17 14:07:29;;;;;;;;;;;;;;;12.90;71.39;103824.72;5079606;27;27247;-81
2021/12/17 14:10:05;;;;;;;;;;;;;;;12.89;71.31;103823.00;5077327;28;27483;-82
2021/12/17 14:12:33;;;;;;;;;;;;;;;12.85;71.86;103821.19;5075941;27;27063;-80
2021/12/17 14:15:01;;;;;;;;;;;;;;;12.82;72.03;103821.16;5071778;27;27649;-79
2021/12/17 14:17:31;;;;;;;;;;;;;;;12.79;71.45;103826.28;5066022;27;27188;-80
2021/12/17 14:20:00;;;;;;;;;;;;;;;12.77;71.36;103828.88;5064579;27;28092;-80
2021/12/17 14:22:29;;;;;;;;;;;;;;;12.75;71.76;103825.38;5064650;27;27209;-80
2021/12/17 14:24:55;;;;;;;;;;;;;;;12.75;71.40;103829.69;5065695;27;27083;-80
2021/12/17 14:27:21;;;;;;;;;;;;;;;12.70;71.33;103821.88;5062535;28;27287;-79
2021/12/17 14:29:46;;;;;;;;;;;;;;;12.72;71.74;103824.47;5062617;28;26990;-79
2021/12/17 14:32:15;;;;;;;;;;;;;;;12.70;72.08;103826.16;5063646;27;27228;-79
2021/12/17 14:34:41;;;;;;;;;;;;;;;12.66;71.62;103834.75;5064315;27;27240;-79
2021/12/17 14:37:06;;;;;;;;;;;;;;;12.63;71.30;103835.59;5072830;27;27230;-79
2021/12/17 14:39:34;;;;;;;;;;;;;;;12.62;71.25;103827.78;5074584;28;57521;-79
2021/12/17 14:42:02;;;;;;;;;;;;;;;12.59;71.71;103823.44;5074297;27;27004;-79
2021/12/17 14:47:05;;;;;;;;;;;;;;;12.57;71.75;103822.50;5085413;27;27277;-79
2021/12/17 15:05:08;;;;;;;;;;;;;;;12.46;72.18;103817.16;5084189;28;26847;-79
2021/12/17 15:07:34;;;;;;;;;;;;;;;12.48;71.27;103820.63;5086496;27;27206;-79
2021/12/17 15:09:59;;;;;;;;;;;;;;;12.49;71.42;103821.50;5086754;28;26857;-79
2021/12/17 15:15:00;;;;;;;;;;;;;;;12.48;71.74;103820.63;5084547;27;26960;-80
2021/12/17 15:17:26;;;;;;;;;;;;;;;12.48;71.64;103820.63;5087695;27;27064;-78
2021/12/17 15:19:51;;;;;;;;;;;;;;;12.50;71.56;103821.56;5089125;28;44351;-78
2021/12/17 15:22:16;;;;;;;;;;;;;;;12.51;72.11;103831.09;5089472;28;27127;-78
2021/12/17 15:24:42;;;;;;;;;;;;;;;12.51;71.50;103820.72;5092068;28;53387;-78
2021/12/17 15:27:07;;;;;;;;;;;;;;;12.50;71.88;103824.16;5093780;27;27098;-78
2021/12/17 15:29:33;;;;;;;;;;;;;;;12.52;71.54;103829.38;5095914;28;26928;-78
2021/12/17 15:31:58;;;;;;;;;;;;;;;12.47;71.27;103824.09;5093864;27;27151;-78
2021/12/17 15:34:23;;;;;;;;;;;;;;;12.48;71.71;103824.97;5093955;27;27441;-79
2021/12/17 15:36:49;;;;;;;;;;;;;;;12.47;71.75;103826.69;5093503;27;26959;-78
2021/12/17 15:39:15;;;;;;;;;;;;;;;12.46;71.94;103821.47;5095763;27;26556;-79
2021/12/17 15:41:41;;;;;;;;;;;;;;;12.45;71.34;103825.78;5091805;28;26851;-78
2021/12/17 15:44:10;;;;;;;;;;;;;;;12.43;72.06;103814.53;5090670;27;27336;-78